sensor_id;sensor_type;location;lat;lon;timestamp;P1;durP1;ratioP1;P2;durP2;ratioP2
32734;SDS011;19112;51.076;3.706;2023-01-08T00:00:52;12.85;;;3.78;;
32734;SDS011;19112;51.076;3.706;2023-01-08T00:03:20;14.52;;;4.70;;
32734;SDS011;19112;51.076;3.706;2023-01-08T00:05:47;21.58;;;5.00;;
32734;SDS011;19112;51.076;3.706;2023-01-08T00:08:12;13.07;;;4.93;;
32734;SDS011;19112;51.076;3.706;2023-01-08T00:10:38;16.95;;;4.47;;
32734;SDS011;19112;51.076;3.706;2023-01-08T00:13:05;20.92;;;4.95;;
32734;SDS011;19112;51.076;3.706;2023-01-08T00:15:32;17.42;;;4.55;;
32734;SDS011;19112;51.076;3.706;2023-01-08T00:17:58;13.95;;;4.53;;
32734;SDS011;19112;51.076;3.706;2023-01-08T00:20:24;15.98;;;4.60;;
32734;SDS011;19112;51.076;3.706;2023-01-08T00:22:51;17.92;;;5.15;;
32734;SDS011;19112;51.076;3.706;2023-01-08T00:25:17;18.48;;;4.93;;
32734;SDS011;19112;51.076;3.706;2023-01-08T00:27:44;16.38;;;5.30;;
32734;SDS011;19112;51.076;3.706;2023-01-08T00:30:11;18.83;;;5.43;;
32734;SDS011;19112;51.076;3.706;2023-01-08T00:32:37;17.70;;;4.88;;
32734;SDS011;19112;51.076;3.706;2023-01-08T00:35:03;18.17;;;4.75;;
32734;SDS011;19112;51.076;3.706;2023-01-08T00:37:30;16.92;;;4.85;;
32734;SDS011;19112;51.076;3.706;2023-01-08T00:39:57;17.67;;;5.47;;
32734;SDS011;19112;51.076;3.706;2023-01-08T00:42:22;17.05;;;5.00;;
32734;SDS011;19112;51.076;3.706;2023-01-08T00:44:48;11.38;;;4.28;;
32734;SDS011;19112;51.076;3.706;2023-01-08T00:47:14;13.80;;;4.65;;
32734;SDS011;19112;51.076;3.706;2023-01-08T00:49:39;15.68;;;5.10;;
32734;SDS011;19112;51.076;3.706;2023-01-08T00:52:05;18.52;;;4.70;;
32734;SDS011;19112;51.076;3.706;2023-01-08T00:54:31;11.65;;;4.05;;
32734;SDS011;19112;51.076;3.706;2023-01-08T00:56:57;15.63;;;4.45;;
32734;SDS011;19112;51.076;3.706;2023-01-08T00:59:23;18.25;;;4.05;;
32734;SDS011;19112;51.076;3.706;2023-01-08T01:01:48;17.65;;;4.45;;
32734;SDS011;19112;51.076;3.706;2023-01-08T01:04:14;17.60;;;4.00;;
32734;SDS011;19112;51.076;3.706;2023-01-08T01:06:40;15.73;;;3.45;;
32734;SDS011;19112;51.076;3.706;2023-01-08T01:09:06;12.57;;;3.30;;
32734;SDS011;19112;51.076;3.706;2023-01-08T01:11:33;14.65;;;3.60;;
32734;SDS011;19112;51.076;3.706;2023-01-08T01:13:59;12.40;;;2.85;;
32734;SDS011;19112;51.076;3.706;2023-01-08T01:16:25;14.57;;;2.80;;
32734;SDS011;19112;51.076;3.706;2023-01-08T01:18:51;15.07;;;2.92;;
32734;SDS011;19112;51.076;3.706;2023-01-08T01:21:23;17.45;;;3.13;;
32734;SDS011;19112;51.076;3.706;2023-01-08T01:23:52;15.95;;;2.83;;
32734;SDS011;19112;51.076;3.706;2023-01-08T01:26:20;13.00;;;2.75;;
32734;SDS011;19112;51.076;3.706;2023-01-08T01:28:47;13.82;;;2.65;;
32734;SDS011;19112;51.076;3.706;2023-01-08T01:31:15;12.55;;;2.40;;
32734;SDS011;19112;51.076;3.706;2023-01-08T01:33:42;10.48;;;2.47;;
32734;SDS011;19112;51.076;3.706;2023-01-08T01:36:08;9.68;;;3.03;;
32734;SDS011;19112;51.076;3.706;2023-01-08T01:38:37;11.45;;;2.30;;
32734;SDS011;19112;51.076;3.706;2023-01-08T01:41:08;9.20;;;2.10;;
32734;SDS011;19112;51.076;3.706;2023-01-08T01:43:54;8.57;;;2.40;;
32734;SDS011;19112;51.076;3.706;2023-01-08T01:49:08;15.10;;;2.42;;
32734;SDS011;19112;51.076;3.706;2023-01-08T01:51:40;8.98;;;2.40;;
32734;SDS011;19112;51.076;3.706;2023-01-08T01:54:11;8.45;;;2.13;;
32734;SDS011;19112;51.076;3.706;2023-01-08T01:56:38;13.18;;;2.20;;
32734;SDS011;19112;51.076;3.706;2023-01-08T01:59:06;14.10;;;2.22;;
32734;SDS011;19112;51.076;3.706;2023-01-08T02:01:32;12.05;;;2.38;;
32734;SDS011;19112;51.076;3.706;2023-01-08T02:03:58;14.77;;;2.20;;
32734;SDS011;19112;51.076;3.706;2023-01-08T02:12:17;10.75;;;2.17;;
32734;SDS011;19112;51.076;3.706;2023-01-08T02:18:07;11.27;;;2.13;;
32734;SDS011;19112;51.076;3.706;2023-01-08T02:20:44;15.88;;;2.45;;
32734;SDS011;19112;51.076;3.706;2023-01-08T02:28:45;11.10;;;2.55;;
32734;SDS011;19112;51.076;3.706;2023-01-08T02:31:20;10.05;;;2.60;;
32734;SDS011;19112;51.076;3.706;2023-01-08T02:33:47;11.63;;;2.47;;
32734;SDS011;19112;51.076;3.706;2023-01-08T02:36:16;14.68;;;4.20;;
32734;SDS011;19112;51.076;3.706;2023-01-08T02:42:10;15.23;;;2.78;;
32734;SDS011;19112;51.076;3.706;2023-01-08T02:45:50;12.60;;;2.38;;
32734;SDS011;19112;51.076;3.706;2023-01-08T02:51:03;11.75;;;2.72;;
32734;SDS011;19112;51.076;3.706;2023-01-08T02:53:57;10.30;;;2.50;;
32734;SDS011;19112;51.076;3.706;2023-01-08T02:56:32;10.82;;;2.45;;
32734;SDS011;19112;51.076;3.706;2023-01-08T02:59:04;13.65;;;2.50;;
32734;SDS011;19112;51.076;3.706;2023-01-08T03:01:31;12.88;;;2.97;;
32734;SDS011;19112;51.076;3.706;2023-01-08T03:03:59;14.20;;;3.05;;
32734;SDS011;19112;51.076;3.706;2023-01-08T03:06:33;12.40;;;2.70;;
32734;SDS011;19112;51.076;3.706;2023-01-08T03:08:59;15.48;;;3.00;;
32734;SDS011;19112;51.076;3.706;2023-01-08T03:11:27;15.98;;;2.95;;
32734;SDS011;19112;51.076;3.706;2023-01-08T03:17:12;16.42;;;2.92;;
32734;SDS011;19112;51.076;3.706;2023-01-08T03:19:56;13.85;;;2.50;;
32734;SDS011;19112;51.076;3.706;2023-01-08T03:22:36;13.75;;;3.40;;
32734;SDS011;19112;51.076;3.706;2023-01-08T03:25:06;13.18;;;3.17;;
32734;SDS011;19112;51.076;3.706;2023-01-08T03:27:35;10.73;;;3.08;;
32734;SDS011;19112;51.076;3.706;2023-01-08T03:30:09;14.63;;;3.30;;
32734;SDS011;19112;51.076;3.706;2023-01-08T03:32:38;11.05;;;3.17;;
32734;SDS011;19112;51.076;3.706;2023-01-08T03:35:06;10.88;;;2.33;;
32734;SDS011;19112;51.076;3.706;2023-01-08T03:37:36;11.98;;;3.65;;
32734;SDS011;19112;51.076;3.706;2023-01-08T03:43:12;12.73;;;2.83;;
32734;SDS011;19112;51.076;3.706;2023-01-08T03:45:37;12.85;;;4.22;;
32734;SDS011;19112;51.076;3.706;2023-01-08T03:48:20;22.45;;;4.45;;
32734;SDS011;19112;51.076;3.706;2023-01-08T03:50:47;14.73;;;2.28;;
32734;SDS011;19112;51.076;3.706;2023-01-08T03:53:13;15.38;;;2.35;;
32734;SDS011;19112;51.076;3.706;2023-01-08T03:55:39;12.77;;;2.28;;
32734;SDS011;19112;51.076;3.706;2023-01-08T03:58:05;14.35;;;2.75;;
32734;SDS011;19112;51.076;3.706;2023-01-08T04:00:31;11.90;;;2.40;;
32734;SDS011;19112;51.076;3.706;2023-01-08T04:02:57;10.50;;;2.55;;
32734;SDS011;19112;51.076;3.706;2023-01-08T04:05:22;11.45;;;1.98;;
32734;SDS011;19112;51.076;3.706;2023-01-08T04:07:48;11.63;;;2.20;;
32734;SDS011;19112;51.076;3.706;2023-01-08T04:10:14;10.82;;;2.25;;
32734;SDS011;19112;51.076;3.706;2023-01-08T04:12:43;5.90;;;1.45;;
32734;SDS011;19112;51.076;3.706;2023-01-08T04:15:09;12.65;;;2.20;;
32734;SDS011;19112;51.076;3.706;2023-01-08T04:17:35;9.63;;;2.22;;
32734;SDS011;19112;51.076;3.706;2023-01-08T04:20:00;17.85;;;2.45;;
32734;SDS011;19112;51.076;3.706;2023-01-08T04:22:26;17.92;;;2.55;;
32734;SDS011;19112;51.076;3.706;2023-01-08T04:24:52;21.67;;;3.22;;
32734;SDS011;19112;51.076;3.706;2023-01-08T04:27:18;14.90;;;2.30;;
32734;SDS011;19112;51.076;3.706;2023-01-08T04:29:44;12.60;;;2.42;;
32734;SDS011;19112;51.076;3.706;2023-01-08T04:32:09;12.15;;;2.13;;
32734;SDS011;19112;51.076;3.706;2023-01-08T04:34:35;10.63;;;2.20;;
32734;SDS011;19112;51.076;3.706;2023-01-08T04:37:01;12.52;;;2.97;;
32734;SDS011;19112;51.076;3.706;2023-01-08T04:39:27;15.15;;;2.45;;
32734;SDS011;19112;51.076;3.706;2023-01-08T04:41:53;10.90;;;1.80;;
32734;SDS011;19112;51.076;3.706;2023-01-08T04:44:18;14.25;;;2.13;;
32734;SDS011;19112;51.076;3.706;2023-01-08T04:46:44;12.15;;;2.08;;
32734;SDS011;19112;51.076;3.706;2023-01-08T04:49:10;16.35;;;2.20;;
32734;SDS011;19112;51.076;3.706;2023-01-08T04:51:37;14.15;;;2.25;;
32734;SDS011;19112;51.076;3.706;2023-01-08T04:54:02;15.15;;;2.42;;
32734;SDS011;19112;51.076;3.706;2023-01-08T04:56:28;17.27;;;2.90;;
32734;SDS011;19112;51.076;3.706;2023-01-08T04:58:55;12.48;;;2.20;;
32734;SDS011;19112;51.076;3.706;2023-01-08T05:01:22;14.82;;;2.35;;
32734;SDS011;19112;51.076;3.706;2023-01-08T05:03:58;17.75;;;2.60;;
32734;SDS011;19112;51.076;3.706;2023-01-08T05:06:27;19.25;;;3.83;;
32734;SDS011;19112;51.076;3.706;2023-01-08T05:08:54;29.83;;;4.18;;
32734;SDS011;19112;51.076;3.706;2023-01-08T05:11:20;16.35;;;2.30;;
32734;SDS011;19112;51.076;3.706;2023-01-08T05:13:47;16.98;;;2.17;;
32734;SDS011;19112;51.076;3.706;2023-01-08T05:16:14;10.57;;;2.10;;
32734;SDS011;19112;51.076;3.706;2023-01-08T05:18:41;18.65;;;2.40;;
32734;SDS011;19112;51.076;3.706;2023-01-08T05:21:08;20.08;;;2.67;;
32734;SDS011;19112;51.076;3.706;2023-01-08T05:23:34;19.23;;;3.67;;
32734;SDS011;19112;51.076;3.706;2023-01-08T05:26:01;17.95;;;2.70;;
32734;SDS011;19112;51.076;3.706;2023-01-08T05:28:29;21.42;;;2.08;;
32734;SDS011;19112;51.076;3.706;2023-01-08T05:30:56;20.02;;;2.67;;
32734;SDS011;19112;51.076;3.706;2023-01-08T05:33:22;24.80;;;2.63;;
32734;SDS011;19112;51.076;3.706;2023-01-08T05:35:49;15.63;;;2.40;;
32734;SDS011;19112;51.076;3.706;2023-01-08T05:38:15;17.48;;;2.67;;
32734;SDS011;19112;51.076;3.706;2023-01-08T05:40:40;18.63;;;2.58;;
32734;SDS011;19112;51.076;3.706;2023-01-08T05:43:06;13.40;;;2.42;;
32734;SDS011;19112;51.076;3.706;2023-01-08T05:45:32;21.73;;;2.75;;
32734;SDS011;19112;51.076;3.706;2023-01-08T05:47:58;19.95;;;3.47;;
32734;SDS011;19112;51.076;3.706;2023-01-08T05:50:28;17.95;;;2.78;;
32734;SDS011;19112;51.076;3.706;2023-01-08T05:52:54;18.52;;;2.83;;
32734;SDS011;19112;51.076;3.706;2023-01-08T05:55:19;16.15;;;2.78;;
32734;SDS011;19112;51.076;3.706;2023-01-08T05:57:45;21.98;;;2.70;;
32734;SDS011;19112;51.076;3.706;2023-01-08T06:00:11;14.68;;;2.63;;
32734;SDS011;19112;51.076;3.706;2023-01-08T06:02:38;17.70;;;3.20;;
32734;SDS011;19112;51.076;3.706;2023-01-08T06:05:03;16.65;;;2.50;;
32734;SDS011;19112;51.076;3.706;2023-01-08T06:07:30;22.35;;;3.03;;
32734;SDS011;19112;51.076;3.706;2023-01-08T06:09:55;18.08;;;3.08;;
32734;SDS011;19112;51.076;3.706;2023-01-08T06:12:21;18.35;;;3.17;;
32734;SDS011;19112;51.076;3.706;2023-01-08T06:14:47;17.25;;;3.20;;
32734;SDS011;19112;51.076;3.706;2023-01-08T06:17:13;14.93;;;2.97;;
32734;SDS011;19112;51.076;3.706;2023-01-08T06:19:41;23.30;;;2.83;;
32734;SDS011;19112;51.076;3.706;2023-01-08T06:22:07;17.77;;;2.75;;
32734;SDS011;19112;51.076;3.706;2023-01-08T06:24:33;20.08;;;2.63;;
32734;SDS011;19112;51.076;3.706;2023-01-08T06:26:58;18.45;;;3.50;;
32734;SDS011;19112;51.076;3.706;2023-01-08T06:29:24;19.63;;;3.25;;
32734;SDS011;19112;51.076;3.706;2023-01-08T06:31:50;17.63;;;5.88;;
32734;SDS011;19112;51.076;3.706;2023-01-08T06:34:15;13.38;;;2.78;;
32734;SDS011;19112;51.076;3.706;2023-01-08T06:36:42;20.77;;;3.00;;
32734;SDS011;19112;51.076;3.706;2023-01-08T06:39:08;19.75;;;2.95;;
32734;SDS011;19112;51.076;3.706;2023-01-08T06:41:34;18.73;;;2.78;;
32734;SDS011;19112;51.076;3.706;2023-01-08T06:43:59;11.85;;;2.53;;
32734;SDS011;19112;51.076;3.706;2023-01-08T06:46:25;25.92;;;5.25;;
32734;SDS011;19112;51.076;3.706;2023-01-08T06:48:51;19.67;;;3.22;;
32734;SDS011;19112;51.076;3.706;2023-01-08T06:51:17;17.90;;;2.55;;
32734;SDS011;19112;51.076;3.706;2023-01-08T06:53:42;16.15;;;2.72;;
32734;SDS011;19112;51.076;3.706;2023-01-08T06:56:08;15.30;;;2.58;;
32734;SDS011;19112;51.076;3.706;2023-01-08T06:58:35;19.55;;;3.33;;
32734;SDS011;19112;51.076;3.706;2023-01-08T07:01:02;14.70;;;3.15;;
32734;SDS011;19112;51.076;3.706;2023-01-08T07:03:28;13.70;;;2.53;;
32734;SDS011;19112;51.076;3.706;2023-01-08T07:05:54;22.58;;;3.10;;
32734;SDS011;19112;51.076;3.706;2023-01-08T07:08:20;18.40;;;3.88;;
32734;SDS011;19112;51.076;3.706;2023-01-08T07:10:47;16.60;;;2.60;;
32734;SDS011;19112;51.076;3.706;2023-01-08T07:13:14;24.70;;;3.10;;
32734;SDS011;19112;51.076;3.706;2023-01-08T07:15:40;16.42;;;2.78;;
32734;SDS011;19112;51.076;3.706;2023-01-08T07:18:06;24.75;;;3.47;;
32734;SDS011;19112;51.076;3.706;2023-01-08T07:20:35;15.35;;;2.72;;
32734;SDS011;19112;51.076;3.706;2023-01-08T07:23:05;34.33;;;4.50;;
32734;SDS011;19112;51.076;3.706;2023-01-08T07:25:34;17.13;;;2.85;;
32734;SDS011;19112;51.076;3.706;2023-01-08T07:28:00;19.52;;;3.53;;
32734;SDS011;19112;51.076;3.706;2023-01-08T07:30:26;18.15;;;4.25;;
32734;SDS011;19112;51.076;3.706;2023-01-08T07:32:52;23.15;;;3.78;;
32734;SDS011;19112;51.076;3.706;2023-01-08T07:35:21;18.80;;;2.70;;
32734;SDS011;19112;51.076;3.706;2023-01-08T07:37:47;23.48;;;3.92;;
32734;SDS011;19112;51.076;3.706;2023-01-08T07:40:12;26.35;;;3.55;;
32734;SDS011;19112;51.076;3.706;2023-01-08T07:42:38;18.48;;;3.13;;
32734;SDS011;19112;51.076;3.706;2023-01-08T07:45:04;19.45;;;3.35;;
32734;SDS011;19112;51.076;3.706;2023-01-08T07:47:31;19.33;;;3.60;;
32734;SDS011;19112;51.076;3.706;2023-01-08T07:49:57;19.73;;;3.58;;
32734;SDS011;19112;51.076;3.706;2023-01-08T07:52:23;22.17;;;3.83;;
32734;SDS011;19112;51.076;3.706;2023-01-08T07:54:49;22.70;;;3.60;;
32734;SDS011;19112;51.076;3.706;2023-01-08T07:57:15;23.42;;;3.40;;
32734;SDS011;19112;51.076;3.706;2023-01-08T07:59:40;21.17;;;3.28;;
32734;SDS011;19112;51.076;3.706;2023-01-08T08:02:08;21.10;;;4.22;;
32734;SDS011;19112;51.076;3.706;2023-01-08T08:04:37;19.30;;;4.10;;
32734;SDS011;19112;51.076;3.706;2023-01-08T08:07:03;24.48;;;4.05;;
32734;SDS011;19112;51.076;3.706;2023-01-08T08:09:29;22.90;;;4.20;;
32734;SDS011;19112;51.076;3.706;2023-01-08T08:11:54;22.58;;;3.67;;
32734;SDS011;19112;51.076;3.706;2023-01-08T08:14:20;21.88;;;3.75;;
32734;SDS011;19112;51.076;3.706;2023-01-08T08:16:46;15.20;;;2.80;;
32734;SDS011;19112;51.076;3.706;2023-01-08T08:19:12;23.48;;;3.85;;
32734;SDS011;19112;51.076;3.706;2023-01-08T08:21:39;16.80;;;2.92;;
32734;SDS011;19112;51.076;3.706;2023-01-08T08:24:05;21.65;;;3.42;;
32734;SDS011;19112;51.076;3.706;2023-01-08T08:26:32;21.73;;;4.00;;
32734;SDS011;19112;51.076;3.706;2023-01-08T08:28:58;14.45;;;3.17;;
32734;SDS011;19112;51.076;3.706;2023-01-08T08:31:23;18.23;;;3.50;;
32734;SDS011;19112;51.076;3.706;2023-01-08T08:33:49;26.60;;;4.70;;
32734;SDS011;19112;51.076;3.706;2023-01-08T08:36:15;23.00;;;3.97;;
32734;SDS011;19112;51.076;3.706;2023-01-08T08:38:41;26.48;;;3.78;;
32734;SDS011;19112;51.076;3.706;2023-01-08T08:41:06;18.27;;;3.40;;
32734;SDS011;19112;51.076;3.706;2023-01-08T08:43:32;15.63;;;3.25;;
32734;SDS011;19112;51.076;3.706;2023-01-08T08:45:58;14.00;;;3.03;;
32734;SDS011;19112;51.076;3.706;2023-01-08T08:48:23;20.55;;;3.28;;
32734;SDS011;19112;51.076;3.706;2023-01-08T08:50:49;16.52;;;3.38;;
32734;SDS011;19112;51.076;3.706;2023-01-08T08:53:15;15.68;;;3.13;;
32734;SDS011;19112;51.076;3.706;2023-01-08T08:55:41;17.40;;;2.97;;
32734;SDS011;19112;51.076;3.706;2023-01-08T08:58:07;13.95;;;3.28;;
32734;SDS011;19112;51.076;3.706;2023-01-08T09:00:39;12.90;;;2.88;;
32734;SDS011;19112;51.076;3.706;2023-01-08T09:03:07;14.43;;;2.92;;
32734;SDS011;19112;51.076;3.706;2023-01-08T09:05:37;16.75;;;2.80;;
32734;SDS011;19112;51.076;3.706;2023-01-08T09:08:03;15.75;;;3.13;;
32734;SDS011;19112;51.076;3.706;2023-01-08T09:10:29;18.02;;;2.95;;
32734;SDS011;19112;51.076;3.706;2023-01-08T09:12:55;16.85;;;4.28;;
32734;SDS011;19112;51.076;3.706;2023-01-08T09:15:21;18.08;;;3.28;;
32734;SDS011;19112;51.076;3.706;2023-01-08T09:17:53;17.13;;;2.80;;
32734;SDS011;19112;51.076;3.706;2023-01-08T09:20:21;11.85;;;2.83;;
32734;SDS011;19112;51.076;3.706;2023-01-08T09:22:49;12.00;;;2.42;;
32734;SDS011;19112;51.076;3.706;2023-01-08T09:25:15;11.25;;;2.80;;
32734;SDS011;19112;51.076;3.706;2023-01-08T09:27:41;13.15;;;2.20;;
32734;SDS011;19112;51.076;3.706;2023-01-08T09:30:08;11.85;;;2.65;;
32734;SDS011;19112;51.076;3.706;2023-01-08T09:32:34;13.82;;;2.97;;
32734;SDS011;19112;51.076;3.706;2023-01-08T09:35:00;7.55;;;2.03;;
32734;SDS011;19112;51.076;3.706;2023-01-08T09:37:26;8.45;;;2.30;;
32734;SDS011;19112;51.076;3.706;2023-01-08T09:39:52;14.73;;;2.28;;
32734;SDS011;19112;51.076;3.706;2023-01-08T09:42:20;7.90;;;1.95;;
32734;SDS011;19112;51.076;3.706;2023-01-08T09:44:50;7.45;;;2.10;;
32734;SDS011;19112;51.076;3.706;2023-01-08T09:47:24;8.48;;;1.98;;
32734;SDS011;19112;51.076;3.706;2023-01-08T09:49:54;6.82;;;1.90;;
32734;SDS011;19112;51.076;3.706;2023-01-08T09:52:26;4.75;;;1.90;;
32734;SDS011;19112;51.076;3.706;2023-01-08T09:54:53;9.77;;;2.50;;
32734;SDS011;19112;51.076;3.706;2023-01-08T09:57:19;9.38;;;2.72;;
32734;SDS011;19112;51.076;3.706;2023-01-08T09:59:46;12.30;;;2.28;;
32734;SDS011;19112;51.076;3.706;2023-01-08T10:02:16;11.20;;;2.65;;
32734;SDS011;19112;51.076;3.706;2023-01-08T10:04:50;17.98;;;3.58;;
32734;SDS011;19112;51.076;3.706;2023-01-08T10:07:26;12.48;;;3.30;;
32734;SDS011;19112;51.076;3.706;2023-01-08T10:09:53;11.93;;;2.03;;
32734;SDS011;19112;51.076;3.706;2023-01-08T10:12:24;9.98;;;1.92;;
32734;SDS011;19112;51.076;3.706;2023-01-08T10:14:54;5.55;;;2.00;;
32734;SDS011;19112;51.076;3.706;2023-01-08T10:17:36;9.95;;;2.08;;
32734;SDS011;19112;51.076;3.706;2023-01-08T10:20:16;8.53;;;2.10;;
32734;SDS011;19112;51.076;3.706;2023-01-08T10:22:46;10.45;;;2.05;;
32734;SDS011;19112;51.076;3.706;2023-01-08T10:25:15;9.55;;;2.05;;
32734;SDS011;19112;51.076;3.706;2023-01-08T10:33:05;12.88;;;3.95;;
32734;SDS011;19112;51.076;3.706;2023-01-08T10:35:41;9.02;;;2.00;;
32734;SDS011;19112;51.076;3.706;2023-01-08T10:38:25;8.20;;;1.55;;
32734;SDS011;19112;51.076;3.706;2023-01-08T10:41:18;15.52;;;2.42;;
32734;SDS011;19112;51.076;3.706;2023-01-08T10:43:55;12.45;;;1.83;;
32734;SDS011;19112;51.076;3.706;2023-01-08T10:49:15;10.48;;;1.75;;
32734;SDS011;19112;51.076;3.706;2023-01-08T10:51:50;11.85;;;2.72;;
32734;SDS011;19112;51.076;3.706;2023-01-08T10:56:58;12.10;;;2.15;;
32734;SDS011;19112;51.076;3.706;2023-01-08T10:59:24;10.88;;;2.00;;
32734;SDS011;19112;51.076;3.706;2023-01-08T11:01:51;16.63;;;2.33;;
32734;SDS011;19112;51.076;3.706;2023-01-08T11:04:41;14.90;;;2.08;;
32734;SDS011;19112;51.076;3.706;2023-01-08T11:07:06;13.70;;;2.10;;
32734;SDS011;19112;51.076;3.706;2023-01-08T11:09:46;17.73;;;2.33;;
32734;SDS011;19112;51.076;3.706;2023-01-08T11:15:04;7.80;;;1.80;;
32734;SDS011;19112;51.076;3.706;2023-01-08T11:17:50;17.90;;;2.38;;
32734;SDS011;19112;51.076;3.706;2023-01-08T11:20:29;14.82;;;2.25;;
32734;SDS011;19112;51.076;3.706;2023-01-08T11:26:07;10.88;;;1.80;;
32734;SDS011;19112;51.076;3.706;2023-01-08T11:28:44;15.63;;;2.17;;
32734;SDS011;19112;51.076;3.706;2023-01-08T11:34:06;12.60;;;1.98;;
32734;SDS011;19112;51.076;3.706;2023-01-08T11:37:09;17.15;;;2.40;;
32734;SDS011;19112;51.076;3.706;2023-01-08T11:39:44;12.23;;;1.98;;
32734;SDS011;19112;51.076;3.706;2023-01-08T11:53:40;8.88;;;2.05;;
32734;SDS011;19112;51.076;3.706;2023-01-08T12:10:55;12.05;;;2.38;;
32734;SDS011;19112;51.076;3.706;2023-01-08T12:22:42;11.60;;;2.47;;
32734;SDS011;19112;51.076;3.706;2023-01-08T12:25:45;11.68;;;1.98;;
32734;SDS011;19112;51.076;3.706;2023-01-08T12:34:08;10.00;;;2.08;;
32734;SDS011;19112;51.076;3.706;2023-01-08T12:36:48;11.57;;;1.65;;
32734;SDS011;19112;51.076;3.706;2023-01-08T12:39:25;10.30;;;2.15;;
32734;SDS011;19112;51.076;3.706;2023-01-08T12:42:09;14.82;;;2.25;;
32734;SDS011;19112;51.076;3.706;2023-01-08T12:44:41;11.32;;;2.28;;
32734;SDS011;19112;51.076;3.706;2023-01-08T12:47:12;12.60;;;1.65;;
32734;SDS011;19112;51.076;3.706;2023-01-08T12:49:47;11.05;;;2.10;;
32734;SDS011;19112;51.076;3.706;2023-01-08T12:52:51;11.23;;;2.05;;
32734;SDS011;19112;51.076;3.706;2023-01-08T12:55:45;13.00;;;2.00;;
32734;SDS011;19112;51.076;3.706;2023-01-08T12:58:32;8.45;;;1.55;;
32734;SDS011;19112;51.076;3.706;2023-01-08T13:03:59;13.77;;;2.55;;
32734;SDS011;19112;51.076;3.706;2023-01-08T13:06:28;10.85;;;2.25;;
32734;SDS011;19112;51.076;3.706;2023-01-08T13:08:55;11.70;;;2.58;;
32734;SDS011;19112;51.076;3.706;2023-01-08T13:11:27;16.98;;;2.70;;
32734;SDS011;19112;51.076;3.706;2023-01-08T13:14:00;16.95;;;2.47;;
32734;SDS011;19112;51.076;3.706;2023-01-08T13:16:37;12.18;;;2.47;;
32734;SDS011;19112;51.076;3.706;2023-01-08T13:19:06;12.52;;;2.38;;
32734;SDS011;19112;51.076;3.706;2023-01-08T13:21:49;15.10;;;2.38;;
32734;SDS011;19112;51.076;3.706;2023-01-08T13:24:37;11.20;;;2.58;;
32734;SDS011;19112;51.076;3.706;2023-01-08T13:29:43;10.82;;;2.28;;
32734;SDS011;19112;51.076;3.706;2023-01-08T13:37:45;11.98;;;2.03;;
32734;SDS011;19112;51.076;3.706;2023-01-08T13:48:26;15.20;;;2.75;;
32734;SDS011;19112;51.076;3.706;2023-01-08T13:50:54;17.83;;;3.05;;
32734;SDS011;19112;51.076;3.706;2023-01-08T13:53:21;12.77;;;2.50;;
32734;SDS011;19112;51.076;3.706;2023-01-08T13:55:55;13.63;;;3.17;;
32734;SDS011;19112;51.076;3.706;2023-01-08T13:58:26;10.50;;;2.42;;
32734;SDS011;19112;51.076;3.706;2023-01-08T14:01:08;14.68;;;2.60;;
32734;SDS011;19112;51.076;3.706;2023-01-08T14:03:35;13.45;;;2.55;;
32734;SDS011;19112;51.076;3.706;2023-01-08T14:06:18;16.33;;;2.83;;
32734;SDS011;19112;51.076;3.706;2023-01-08T14:08:52;16.17;;;5.55;;
32734;SDS011;19112;51.076;3.706;2023-01-08T14:14:00;15.27;;;2.97;;
32734;SDS011;19112;51.076;3.706;2023-01-08T14:16:26;16.83;;;3.45;;
32734;SDS011;19112;51.076;3.706;2023-01-08T14:18:52;13.23;;;3.33;;
32734;SDS011;19112;51.076;3.706;2023-01-08T14:21:24;12.27;;;2.45;;
32734;SDS011;19112;51.076;3.706;2023-01-08T14:23:50;15.90;;;2.40;;
32734;SDS011;19112;51.076;3.706;2023-01-08T14:26:31;12.48;;;2.83;;
32734;SDS011;19112;51.076;3.706;2023-01-08T14:29:23;16.63;;;3.88;;
32734;SDS011;19112;51.076;3.706;2023-01-08T14:31:50;11.38;;;2.60;;
32734;SDS011;19112;51.076;3.706;2023-01-08T14:34:20;15.63;;;3.35;;
32734;SDS011;19112;51.076;3.706;2023-01-08T14:36:49;18.48;;;3.88;;
32734;SDS011;19112;51.076;3.706;2023-01-08T14:39:24;26.00;;;5.65;;
32734;SDS011;19112;51.076;3.706;2023-01-08T14:42:03;18.40;;;5.22;;
32734;SDS011;19112;51.076;3.706;2023-01-08T14:45:22;30.10;;;15.77;;
32734;SDS011;19112;51.076;3.706;2023-01-08T14:47:53;26.80;;;15.40;;
32734;SDS011;19112;51.076;3.706;2023-01-08T14:52:49;39.38;;;22.88;;
32734;SDS011;19112;51.076;3.706;2023-01-08T14:55:21;25.92;;;14.35;;
32734;SDS011;19112;51.076;3.706;2023-01-08T14:57:48;20.67;;;4.40;;
32734;SDS011;19112;51.076;3.706;2023-01-08T15:00:24;13.93;;;3.60;;
32734;SDS011;19112;51.076;3.706;2023-01-08T15:02:53;15.95;;;2.78;;
32734;SDS011;19112;51.076;3.706;2023-01-08T15:05:27;23.27;;;3.97;;
32734;SDS011;19112;51.076;3.706;2023-01-08T15:13:59;9.83;;;2.50;;
32734;SDS011;19112;51.076;3.706;2023-01-08T15:16:36;14.20;;;2.78;;
32734;SDS011;19112;51.076;3.706;2023-01-08T15:19:09;14.70;;;3.00;;
32734;SDS011;19112;51.076;3.706;2023-01-08T15:21:46;18.85;;;2.55;;
32734;SDS011;19112;51.076;3.706;2023-01-08T15:24:20;17.02;;;3.63;;
32734;SDS011;19112;51.076;3.706;2023-01-08T15:26:53;16.35;;;4.15;;
32734;SDS011;19112;51.076;3.706;2023-01-08T15:29:25;16.15;;;5.65;;
32734;SDS011;19112;51.076;3.706;2023-01-08T15:32:19;18.25;;;4.97;;
32734;SDS011;19112;51.076;3.706;2023-01-08T15:34:46;25.48;;;5.78;;
32734;SDS011;19112;51.076;3.706;2023-01-08T15:37:12;17.10;;;5.60;;
32734;SDS011;19112;51.076;3.706;2023-01-08T15:39:39;21.95;;;4.20;;
32734;SDS011;19112;51.076;3.706;2023-01-08T15:45:14;15.05;;;4.38;;
32734;SDS011;19112;51.076;3.706;2023-01-08T15:47:44;15.95;;;3.15;;
32734;SDS011;19112;51.076;3.706;2023-01-08T15:50:10;19.35;;;3.45;;
32734;SDS011;19112;51.076;3.706;2023-01-08T15:52:36;18.63;;;5.53;;
32734;SDS011;19112;51.076;3.706;2023-01-08T15:55:05;29.25;;;6.45;;
32734;SDS011;19112;51.076;3.706;2023-01-08T15:57:38;24.58;;;9.20;;
32734;SDS011;19112;51.076;3.706;2023-01-08T16:00:04;24.00;;;6.95;;
32734;SDS011;19112;51.076;3.706;2023-01-08T16:02:38;25.42;;;7.50;;
32734;SDS011;19112;51.076;3.706;2023-01-08T16:05:08;19.77;;;3.95;;
32734;SDS011;19112;51.076;3.706;2023-01-08T16:07:35;18.73;;;5.25;;
32734;SDS011;19112;51.076;3.706;2023-01-08T16:10:01;19.25;;;4.07;;
32734;SDS011;19112;51.076;3.706;2023-01-08T16:12:27;21.48;;;7.65;;
32734;SDS011;19112;51.076;3.706;2023-01-08T16:14:52;22.70;;;7.80;;
32734;SDS011;19112;51.076;3.706;2023-01-08T16:17:18;20.55;;;5.63;;
32734;SDS011;19112;51.076;3.706;2023-01-08T16:19:44;22.60;;;7.88;;
32734;SDS011;19112;51.076;3.706;2023-01-08T16:22:10;28.02;;;8.57;;
32734;SDS011;19112;51.076;3.706;2023-01-08T16:24:35;32.05;;;16.77;;
32734;SDS011;19112;51.076;3.706;2023-01-08T16:27:01;26.45;;;12.48;;
32734;SDS011;19112;51.076;3.706;2023-01-08T16:29:27;20.30;;;4.40;;
32734;SDS011;19112;51.076;3.706;2023-01-08T16:31:53;20.92;;;4.13;;
32734;SDS011;19112;51.076;3.706;2023-01-08T16:34:19;13.30;;;3.30;;
32734;SDS011;19112;51.076;3.706;2023-01-08T16:36:46;13.68;;;2.80;;
32734;SDS011;19112;51.076;3.706;2023-01-08T16:39:13;12.40;;;2.58;;
32734;SDS011;19112;51.076;3.706;2023-01-08T16:41:38;17.52;;;3.85;;
32734;SDS011;19112;51.076;3.706;2023-01-08T16:44:04;20.20;;;3.95;;
32734;SDS011;19112;51.076;3.706;2023-01-08T16:46:30;12.85;;;3.40;;
32734;SDS011;19112;51.076;3.706;2023-01-08T16:48:56;14.00;;;4.70;;
32734;SDS011;19112;51.076;3.706;2023-01-08T16:51:22;12.95;;;2.90;;
32734;SDS011;19112;51.076;3.706;2023-01-08T16:53:50;19.15;;;3.30;;